Time;durP1;ratioP1;P1;durP2;ratioP2;P2;SDS_P1;SDS_P2;PMS_P1;PMS_P2;Temp;Humidity;BMP_temperature;BMP_pressure;BME280_temperature;BME280_humidity;BME280_pressure;Samples;Min_cycle;Max_cycle;Signal;HPM_P1;HPM_P2
2022/11/27 00:01:30;;;;;;;22.00;9.27;;;4.90;99.90;;;;;;5012007;28;20060;-71
2022/11/27 00:03:56;;;;;;;23.88;10.15;;;4.90;99.90;;;;;;5013401;28;20061;-71
2022/11/27 00:06:23;;;;;;;19.38;9.18;;;4.90;99.90;;;;;;4996065;28;20045;-72
2022/11/27 00:08:49;;;;;;;16.63;8.75;;;4.80;99.90;;;;;;5027967;28;20128;-71
2022/11/27 00:11:22;;;;;;;19.35;8.90;;;4.80;99.90;;;;;;5028940;28;20049;-71
2022/11/27 00:13:48;;;;;;;20.88;8.48;;;4.70;99.90;;;;;;5011773;28;20059;-72
2022/11/27 00:16:14;;;;;;;19.88;9.05;;;4.70;99.90;;;;;;5026689;28;20045;-70
2022/11/27 00:18:40;;;;;;;18.73;8.98;;;4.60;99.90;;;;;;5025380;28;20071;-71
2022/11/27 00:21:15;;;;;;;17.73;8.98;;;4.60;99.90;;;;;;5012380;28;20459;-72
2022/11/27 00:23:41;;;;;;;17.10;8.75;;;4.60;99.90;;;;;;4996258;28;20185;-71
2022/11/27 00:26:07;;;;;;;21.98;9.18;;;4.60;99.90;;;;;;5012646;28;20053;-71
2022/11/27 00:28:36;;;;;;;22.48;10.27;;;4.50;99.90;;;;;;4996339;28;20616;-71
2022/11/27 00:31:05;;;;;;;17.77;8.45;;;4.50;99.90;;;;;;4994296;28;20103;-71
2022/11/27 00:33:31;;;;;;;22.40;9.20;;;4.50;99.90;;;;;;5025457;28;20053;-71
2022/11/27 00:36:02;;;;;;;19.02;9.05;;;4.50;99.90;;;;;;4995599;28;20057;-72
2022/11/27 00:38:27;;;;;;;19.77;8.73;;;4.50;99.90;;;;;;5013158;28;20045;-72
2022/11/27 00:40:53;;;;;;;19.42;8.95;;;4.40;99.90;;;;;;5029749;28;20048;-72
2022/11/27 00:43:19;;;;;;;19.08;8.85;;;4.30;99.90;;;;;;5011721;28;20080;-72
2022/11/27 00:45:48;;;;;;;23.13;10.75;;;4.40;99.90;;;;;;4996042;28;20056;-71
2022/11/27 00:48:14;;;;;;;21.25;9.48;;;4.40;99.90;;;;;;5028632;28;20046;-71
2022/11/27 00:50:40;;;;;;;18.92;9.70;;;4.40;99.90;;;;;;5027767;28;20049;-70
2022/11/27 00:53:07;;;;;;;19.92;9.68;;;4.40;99.90;;;;;;4992611;28;20468;-72
2022/11/27 00:55:32;;;;;;;21.40;10.23;;;4.40;99.90;;;;;;5023463;28;20098;-71
2022/11/27 00:57:58;;;;;;;18.65;9.32;;;4.30;99.90;;;;;;5027778;28;20049;-72
2022/11/27 01:00:24;;;;;;;24.15;9.80;;;4.30;99.90;;;;;;4995196;28;20136;-71
2022/11/27 01:02:51;;;;;;;20.80;9.32;;;4.40;99.90;;;;;;5010520;28;20153;-72
2022/11/27 01:05:16;;;;;;;17.08;8.82;;;4.40;99.90;;;;;;5010600;28;20109;-72
2022/11/27 01:07:44;;;;;;;17.63;9.73;;;4.40;99.90;;;;;;5028688;28;20060;-71
2022/11/27 01:10:12;;;;;;;22.15;9.18;;;4.40;99.90;;;;;;5007528;28;20493;-71
2022/11/27 01:12:38;;;;;;;18.10;8.65;;;4.40;99.90;;;;;;5028378;28;20165;-72
2022/11/27 01:15:04;;;;;;;17.70;9.57;;;4.40;99.90;;;;;;4994327;28;20092;-71
2022/11/27 01:17:29;;;;;;;24.73;9.70;;;4.30;99.90;;;;;;5022856;28;20049;-71
2022/11/27 01:19:55;;;;;;;17.10;9.40;;;4.30;99.90;;;;;;5027514;28;20049;-71
2022/11/27 01:22:22;;;;;;;20.23;9.32;;;4.20;99.90;;;;;;5009927;28;20053;-72
2022/11/27 01:24:48;;;;;;;16.95;9.30;;;4.20;99.90;;;;;;5008308;28;20045;-71
2022/11/27 01:27:13;;;;;;;20.80;10.00;;;4.10;99.90;;;;;;5028287;28;20055;-71
2022/11/27 01:29:39;;;;;;;19.65;9.35;;;4.00;99.90;;;;;;5029009;28;20057;-72
2022/11/27 01:32:05;;;;;;;20.40;9.30;;;4.00;99.90;;;;;;4993604;28;20088;-71
2022/11/27 01:34:31;;;;;;;19.15;9.48;;;4.00;99.90;;;;;;5010799;28;20045;-70
2022/11/27 01:36:58;;;;;;;23.63;9.48;;;4.10;99.90;;;;;;5026741;28;20053;-71
2022/11/27 01:39:23;;;;;;;20.30;10.25;;;4.10;99.90;;;;;;5029219;28;20055;-71
2022/11/27 01:41:49;;;;;;;20.38;8.98;;;4.00;99.90;;;;;;5027766;28;20383;-71
2022/11/27 01:44:27;;;;;;;18.75;10.00;;;4.10;99.90;;;;;;5028067;28;20056;-71
2022/11/27 01:46:53;;;;;;;22.45;9.23;;;4.10;99.90;;;;;;5028059;28;20057;-72
2022/11/27 01:49:39;;;;;;;16.60;9.65;;;4.10;99.90;;;;;;5025849;28;20049;-72
2022/11/27 01:52:26;;;;;;;18.52;9.02;;;4.10;99.90;;;;;;5009557;28;20191;-71
2022/11/27 01:55:08;;;;;;;18.48;9.40;;;4.10;99.90;;;;;;4997721;28;20124;-71
2022/11/27 01:57:48;;;;;;;20.55;8.90;;;4.00;99.90;;;;;;4994763;28;20053;-71
2022/11/27 02:00:14;;;;;;;18.27;9.05;;;4.00;99.90;;;;;;5020590;28;20050;-71
2022/11/27 02:02:40;;;;;;;22.63;10.27;;;4.00;99.90;;;;;;4985591;28;20046;-71
2022/11/27 02:05:07;;;;;;;14.88;8.75;;;4.00;99.90;;;;;;5007798;28;20049;-72
2022/11/27 02:07:32;;;;;;;20.50;8.68;;;3.90;99.90;;;;;;4990495;28;20079;-70
2022/11/27 02:09:58;;;;;;;22.02;9.65;;;3.90;99.90;;;;;;5032824;28;20822;-71
2022/11/27 02:12:47;;;;;;;20.98;9.30;;;3.90;99.90;;;;;;5011614;28;20148;-71
2022/11/27 02:15:54;;;;;;;19.90;9.00;;;3.90;99.90;;;;;;5024262;28;20053;-72
2022/11/27 02:18:36;;;;;;;21.23;8.90;;;3.90;99.90;;;;;;5014061;28;20045;-71
2022/11/27 02:21:04;;;;;;;23.17;9.93;;;3.90;99.90;;;;;;5013225;28;20060;-72
2022/11/27 02:24:09;;;;;;;19.13;8.85;;;3.90;99.90;;;;;;5025145;28;20045;-71
2022/11/27 02:27:04;;;;;;;19.88;9.63;;;3.80;99.90;;;;;;5025219;28;20041;-72
2022/11/27 02:29:33;;;;;;;18.02;8.88;;;3.80;99.90;;;;;;4987753;28;20480;-71
2022/11/27 02:32:05;;;;;;;16.55;8.70;;;3.80;99.90;;;;;;5010950;28;20129;-72
2022/11/27 02:34:39;;;;;;;16.52;8.63;;;3.80;99.90;;;;;;5029062;28;20046;-71
2022/11/27 02:37:21;;;;;;;17.88;8.80;;;3.70;99.90;;;;;;5027777;28;20057;-70
2022/11/27 02:40:00;;;;;;;15.88;8.35;;;3.50;99.90;;;;;;5027565;28;20049;-71
2022/11/27 02:42:26;;;;;;;18.95;8.07;;;3.40;99.90;;;;;;4990059;28;20053;-71
2022/11/27 02:44:58;;;;;;;19.65;9.35;;;3.50;99.90;;;;;;5007084;28;20038;-71
2022/11/27 02:47:25;;;;;;;17.00;8.88;;;3.50;99.90;;;;;;5012319;28;20041;-72
2022/11/27 02:49:51;;;;;;;17.55;8.77;;;3.50;99.90;;;;;;5027832;28;20084;-71
2022/11/27 02:52:18;;;;;;;17.52;9.02;;;3.60;99.90;;;;;;5011075;28;20542;-71
2022/11/27 02:54:44;;;;;;;18.58;9.15;;;3.60;99.90;;;;;;5027216;28;20041;-71
2022/11/27 02:57:10;;;;;;;15.77;8.40;;;3.50;99.90;;;;;;4991270;28;20049;-71
2022/11/27 02:59:36;;;;;;;15.35;8.85;;;3.50;99.90;;;;;;5000056;28;20049;-71
2022/11/27 03:02:08;;;;;;;20.10;9.85;;;3.50;99.90;;;;;;5010617;28;20061;-71
2022/11/27 03:04:41;;;;;;;22.58;9.10;;;3.40;99.90;;;;;;4990333;28;20468;-72
2022/11/27 03:07:13;;;;;;;18.52;9.65;;;3.40;99.90;;;;;;5028266;28;20139;-71
2022/11/27 03:09:41;;;;;;;20.45;9.45;;;3.40;99.90;;;;;;4994215;28;20128;-71
2022/11/27 03:12:08;;;;;;;21.75;9.40;;;3.50;99.90;;;;;;5027572;28;20727;-71
2022/11/27 03:14:34;;;;;;;21.38;9.27;;;3.50;99.90;;;;;;5008087;28;20079;-71
2022/11/27 03:17:25;;;;;;;23.88;9.75;;;3.40;99.90;;;;;;5010605;28;20073;-72
2022/11/27 03:19:52;;;;;;;18.50;9.48;;;3.40;99.90;;;;;;5009250;28;20052;-71
2022/11/27 03:22:18;;;;;;;20.80;10.02;;;3.40;99.90;;;;;;5027074;28;20045;-72
2022/11/27 03:24:44;;;;;;;20.15;9.90;;;3.40;99.90;;;;;;5025704;28;20494;-71
2022/11/27 03:27:11;;;;;;;20.75;9.10;;;3.40;99.90;;;;;;4994294;28;20448;-71
2022/11/27 03:29:45;;;;;;;26.07;8.90;;;3.40;99.90;;;;;;5009959;28;20443;-71
2022/11/27 03:32:11;;;;;;;20.10;9.52;;;3.40;99.90;;;;;;5028490;28;20045;-71
2022/11/27 03:34:36;;;;;;;18.50;9.60;;;3.30;99.90;;;;;;4992977;28;20053;-72
2022/11/27 03:37:03;;;;;;;20.63;9.18;;;3.30;99.90;;;;;;5012259;28;20478;-72
2022/11/27 03:39:28;;;;;;;19.85;10.02;;;3.30;99.90;;;;;;5011412;28;20095;-72
2022/11/27 03:42:18;;;;;;;18.95;9.70;;;3.20;99.90;;;;;;4992962;28;20045;-72
2022/11/27 03:44:55;;;;;;;21.98;9.52;;;3.20;99.90;;;;;;5027400;28;20047;-72
2022/11/27 03:47:35;;;;;;;21.42;10.65;;;3.20;99.90;;;;;;5026263;28;20433;-71
2022/11/27 03:50:18;;;;;;;26.00;10.05;;;3.20;99.90;;;;;;5027067;28;20054;-71
2022/11/27 03:52:53;;;;;;;17.25;9.23;;;3.20;99.90;;;;;;5023532;28;20050;-71
2022/11/27 03:55:25;;;;;;;21.25;9.45;;;3.10;99.90;;;;;;5026228;28;20081;-71
2022/11/27 03:58:03;;;;;;;16.65;8.77;;;3.10;99.90;;;;;;5027691;28;20045;-72
2022/11/27 04:00:39;;;;;;;17.30;9.32;;;3.10;99.90;;;;;;5008033;28;20044;-70
2022/11/27 04:03:07;;;;;;;18.17;7.78;;;3.10;99.90;;;;;;5026231;28;20038;-71
2022/11/27 04:05:32;;;;;;;18.20;8.90;;;3.20;99.90;;;;;;5010517;28;20797;-71
2022/11/27 04:07:58;;;;;;;17.55;8.23;;;3.20;99.90;;;;;;5025876;28;20132;-71
2022/11/27 04:10:25;;;;;;;17.98;8.38;;;3.10;99.90;;;;;;5017599;28;20490;-71
2022/11/27 04:12:50;;;;;;;20.05;8.57;;;3.10;99.90;;;;;;5024127;28;20041;-71
2022/11/27 04:15:16;;;;;;;16.05;8.35;;;3.10;99.90;;;;;;5009484;28;20054;-72
2022/11/27 04:17:43;;;;;;;16.20;8.13;;;3.00;99.90;;;;;;5026843;28;20067;-72
2022/11/27 04:20:11;;;;;;;17.25;7.97;;;3.00;99.90;;;;;;4993596;28;20045;-71
2022/11/27 04:22:37;;;;;;;14.50;8.43;;;2.90;99.90;;;;;;5017121;28;20042;-71
2022/11/27 04:25:03;;;;;;;15.32;7.47;;;2.90;99.90;;;;;;5029242;28;20045;-70
2022/11/27 04:27:28;;;;;;;18.45;8.60;;;2.90;99.90;;;;;;5009616;28;20045;-71
2022/11/27 04:29:56;;;;;;;14.35;7.90;;;2.90;99.90;;;;;;4991833;28;20076;-71
2022/11/27 04:32:23;;;;;;;17.20;8.90;;;2.90;99.90;;;;;;5016155;28;20057;-72
2022/11/27 04:34:48;;;;;;;19.38;8.60;;;2.70;99.90;;;;;;5005983;28;20156;-71
2022/11/27 04:37:14;;;;;;;21.73;8.52;;;2.70;99.90;;;;;;5005899;28;20136;-71
2022/11/27 04:39:40;;;;;;;16.88;7.95;;;2.60;99.90;;;;;;5003259;28;20080;-71
2022/11/27 04:42:06;;;;;;;22.15;8.90;;;2.50;99.90;;;;;;5023630;28;20054;-72
2022/11/27 04:44:31;;;;;;;16.40;8.10;;;2.60;99.90;;;;;;4993148;28;20553;-70
2022/11/27 04:46:57;;;;;;;19.77;8.52;;;2.60;99.90;;;;;;5009837;28;20055;-72
2022/11/27 04:49:24;;;;;;;17.00;8.27;;;2.60;99.90;;;;;;5024486;28;20083;-71
2022/11/27 04:51:50;;;;;;;14.80;8.75;;;2.70;99.90;;;;;;5025379;28;20053;-71
2022/11/27 04:54:16;;;;;;;20.42;8.25;;;2.70;99.90;;;;;;5007965;28;20053;-71
2022/11/27 04:56:42;;;;;;;13.55;8.07;;;2.70;99.90;;;;;;5004272;28;20057;-71
2022/11/27 04:59:08;;;;;;;15.80;8.32;;;2.70;99.90;;;;;;5021863;28;20116;-72
2022/11/27 05:01:33;;;;;;;21.13;8.88;;;2.70;99.90;;;;;;5024359;28;20055;-72
2022/11/27 05:03:59;;;;;;;18.15;8.55;;;2.70;99.90;;;;;;5026061;28;20151;-71
2022/11/27 05:06:25;;;;;;;14.90;8.18;;;2.70;99.90;;;;;;5025099;28;20053;-71
2022/11/27 05:08:51;;;;;;;21.08;8.98;;;2.60;99.90;;;;;;5007452;28;20041;-71
2022/11/27 05:11:16;;;;;;;19.48;9.77;;;2.60;99.90;;;;;;4992639;28;20037;-71
2022/11/27 05:13:43;;;;;;;18.80;8.85;;;2.70;99.90;;;;;;5008305;28;20045;-72
2022/11/27 05:16:10;;;;;;;19.27;9.07;;;2.70;99.90;;;;;;5002261;28;20077;-71
2022/11/27 05:18:35;;;;;;;20.33;9.40;;;2.70;99.90;;;;;;5025736;28;20572;-71
2022/11/27 05:21:05;;;;;;;19.52;9.35;;;2.80;99.90;;;;;;5021928;28;20053;-71
2022/11/27 05:23:31;;;;;;;17.10;9.23;;;2.80;99.90;;;;;;5024797;28;20751;-71
2022/11/27 05:25:57;;;;;;;19.40;10.30;;;2.80;99.90;;;;;;5006614;28;20110;-71
2022/11/27 05:28:22;;;;;;;22.20;10.55;;;2.80;99.90;;;;;;5024593;28;20360;-71
2022/11/27 05:30:48;;;;;;;20.02;10.00;;;2.90;99.90;;;;;;5004501;28;20386;-72
2022/11/27 05:33:14;;;;;;;20.23;10.55;;;2.90;99.90;;;;;;4991662;28;20087;-71
2022/11/27 05:35:41;;;;;;;23.83;10.55;;;2.90;99.90;;;;;;4991857;28;20716;-71
2022/11/27 05:38:07;;;;;;;25.73;9.93;;;2.90;99.90;;;;;;5025233;28;20072;-71
2022/11/27 05:40:33;;;;;;;19.98;10.07;;;2.90;99.90;;;;;;5023927;28;20360;-71
2022/11/27 05:42:59;;;;;;;19.38;8.68;;;2.90;99.90;;;;;;5020207;28;20069;-71
2022/11/27 05:45:25;;;;;;;15.80;8.60;;;2.80;99.90;;;;;;5025946;28;20530;-72
2022/11/27 05:47:51;;;;;;;13.52;8.63;;;2.80;99.90;;;;;;5001036;28;20115;-71
2022/11/27 05:50:17;;;;;;;20.23;9.65;;;2.60;99.90;;;;;;5010482;28;20052;-71
2022/11/27 05:52:43;;;;;;;18.15;9.35;;;2.60;99.90;;;;;;5024745;28;20594;-71
2022/11/27 05:55:08;;;;;;;22.42;10.50;;;2.60;99.90;;;;;;5008027;28;20812;-71
2022/11/27 05:57:34;;;;;;;19.90;10.25;;;2.60;99.90;;;;;;5020086;28;20098;-71
2022/11/27 06:00:00;;;;;;;19.52;9.75;;;2.60;99.90;;;;;;5008288;28;20136;-71
2022/11/27 06:02:26;;;;;;;21.10;10.02;;;2.60;99.90;;;;;;5022828;28;20486;-71
2022/11/27 06:04:53;;;;;;;23.73;10.40;;;2.70;99.90;;;;;;5019291;28;20503;-72
2022/11/27 06:07:19;;;;;;;20.13;10.60;;;2.70;99.90;;;;;;5007768;28;20048;-71
2022/11/27 06:09:48;;;;;;;18.25;9.73;;;2.70;99.90;;;;;;5025000;28;20060;-72
2022/11/27 06:12:14;;;;;;;25.20;10.50;;;2.70;99.90;;;;;;5021923;28;20042;-71
2022/11/27 06:14:39;;;;;;;20.42;10.20;;;2.70;99.90;;;;;;5024538;28;20151;-72
2022/11/27 06:17:05;;;;;;;18.95;9.80;;;2.70;99.90;;;;;;5007538;28;20356;-71
2022/11/27 06:19:31;;;;;;;20.63;9.73;;;2.70;99.90;;;;;;5005732;28;20037;-71
2022/11/27 06:21:57;;;;;;;19.75;9.57;;;2.70;99.90;;;;;;4991883;28;20056;-73
2022/11/27 06:24:22;;;;;;;16.65;9.18;;;2.70;99.90;;;;;;5020458;28;20049;-72
2022/11/27 06:26:48;;;;;;;13.48;7.57;;;2.60;99.90;;;;;;5018700;28;20099;-72
2022/11/27 06:29:14;;;;;;;25.05;9.05;;;2.50;99.90;;;;;;5008674;28;20042;-72
2022/11/27 06:31:40;;;;;;;18.27;8.15;;;2.50;99.90;;;;;;5004504;28;20049;-72
2022/11/27 06:34:05;;;;;;;17.70;8.10;;;2.40;99.90;;;;;;5016836;28;20052;-71
2022/11/27 06:36:35;;;;;;;19.73;9.45;;;2.40;99.90;;;;;;5017687;28;20762;-71
2022/11/27 06:39:02;;;;;;;18.83;9.32;;;2.40;99.90;;;;;;5009872;28;20053;-71
2022/11/27 06:41:28;;;;;;;19.33;9.25;;;2.40;99.90;;;;;;5008924;28;20049;-70
2022/11/27 06:43:54;;;;;;;17.30;8.85;;;2.40;99.90;;;;;;4993701;28;20092;-71
2022/11/27 06:46:21;;;;;;;21.35;10.02;;;2.40;99.90;;;;;;5010950;28;20057;-71
2022/11/27 06:48:49;;;;;;;16.92;8.13;;;2.40;99.90;;;;;;5004542;28;20056;-71
2022/11/27 06:51:17;;;;;;;19.38;8.43;;;2.30;99.90;;;;;;5009617;28;20053;-71
2022/11/27 06:53:43;;;;;;;17.75;8.68;;;2.20;99.90;;;;;;4994261;28;20073;-71
2022/11/27 06:56:11;;;;;;;18.13;8.80;;;2.20;99.90;;;;;;4980024;28;20096;-70
2022/11/27 06:58:36;;;;;;;20.85;8.57;;;2.10;99.90;;;;;;5031066;28;20061;-71
2022/11/27 07:01:05;;;;;;;15.15;7.97;;;2.10;99.90;;;;;;5027758;28;20049;-71
2022/11/27 07:03:31;;;;;;;13.50;8.05;;;2.10;99.90;;;;;;5031047;28;20045;-71
2022/11/27 07:06:05;;;;;;;14.20;8.10;;;2.10;99.90;;;;;;5014364;28;20719;-71
2022/11/27 07:08:33;;;;;;;16.15;8.43;;;2.10;99.90;;;;;;5030650;28;20042;-71
2022/11/27 07:11:05;;;;;;;14.90;8.60;;;2.10;99.90;;;;;;5026872;28;20040;-71
2022/11/27 07:13:31;;;;;;;16.85;8.88;;;2.00;99.90;;;;;;5032062;28;20037;-72
2022/11/27 07:16:01;;;;;;;16.23;9.65;;;2.00;99.90;;;;;;4995140;28;20151;-71
2022/11/27 07:18:27;;;;;;;19.52;11.30;;;2.00;99.90;;;;;;5028943;28;20065;-70
2022/11/27 07:20:53;;;;;;;16.35;9.27;;;1.90;99.90;;;;;;5010751;28;20056;-70
2022/11/27 07:23:19;;;;;;;24.25;9.02;;;1.90;99.90;;;;;;4997190;28;20045;-71
2022/11/27 07:25:45;;;;;;;17.45;9.07;;;1.90;99.90;;;;;;5029810;28;20636;-70
2022/11/27 07:28:11;;;;;;;19.13;9.95;;;1.90;99.90;;;;;;5009819;28;20632;-71
2022/11/27 07:30:36;;;;;;;20.73;9.20;;;1.90;99.90;;;;;;5012316;28;20065;-71
2022/11/27 07:33:03;;;;;;;16.63;9.18;;;1.90;99.90;;;;;;5013645;28;20130;-71
2022/11/27 07:35:30;;;;;;;17.02;9.10;;;1.80;99.90;;;;;;5013138;28;20686;-71
2022/11/27 07:37:56;;;;;;;14.18;7.57;;;1.80;99.90;;;;;;5009157;28;20436;-70
2022/11/27 07:40:22;;;;;;;16.83;8.52;;;1.80;99.90;;;;;;5026174;28;20054;-71
2022/11/27 07:42:47;;;;;;;16.42;8.20;;;1.90;99.90;;;;;;5013910;28;20049;-70
2022/11/27 07:45:13;;;;;;;16.30;8.05;;;1.90;99.90;;;;;;5014385;28;20060;-71
2022/11/27 07:47:39;;;;;;;15.00;8.63;;;1.90;99.90;;;;;;5013826;28;20053;-70
2022/11/27 07:50:07;;;;;;;15.00;8.60;;;1.90;99.90;;;;;;5009402;28;20046;-71
2022/11/27 07:52:37;;;;;;;16.80;8.52;;;1.90;99.90;;;;;;5030631;28;20379;-71
2022/11/27 07:55:03;;;;;;;17.85;8.13;;;2.00;99.90;;;;;;5030561;28;20073;-72
2022/11/27 07:57:32;;;;;;;16.27;8.85;;;2.00;99.90;;;;;;4996664;28;20060;-71
2022/11/27 07:59:58;;;;;;;20.20;9.13;;;2.00;99.90;;;;;;5029610;28;20041;-71
2022/11/27 08:02:24;;;;;;;17.55;8.90;;;2.00;99.90;;;;;;5025853;28;20111;-71
2022/11/27 08:04:49;;;;;;;15.02;9.10;;;2.10;99.90;;;;;;5013226;28;20115;-71
2022/11/27 08:07:15;;;;;;;21.33;10.50;;;2.20;99.90;;;;;;5013319;28;20056;-71
2022/11/27 08:09:41;;;;;;;20.27;9.75;;;2.30;99.90;;;;;;5029511;28;20076;-71
2022/11/27 08:12:08;;;;;;;19.25;10.02;;;2.30;99.90;;;;;;5027833;28;20443;-71
2022/11/27 08:14:34;;;;;;;14.90;9.70;;;2.40;99.90;;;;;;5008471;28;20065;-72
2022/11/27 08:16:59;;;;;;;18.42;10.25;;;2.40;99.90;;;;;;5011810;28;20526;-71
2022/11/27 08:19:25;;;;;;;17.17;8.63;;;2.50;99.90;;;;;;5013088;28;20663;-72
2022/11/27 08:21:51;;;;;;;16.83;9.75;;;2.50;99.90;;;;;;5028529;28;20049;-71
2022/11/27 08:24:18;;;;;;;20.10;9.10;;;2.60;99.90;;;;;;5013528;28;20037;-72
2022/11/27 08:26:44;;;;;;;16.80;9.55;;;2.60;99.90;;;;;;5025606;28;20057;-71
2022/11/27 08:29:11;;;;;;;18.98;9.80;;;2.70;99.90;;;;;;5029154;28;20132;-72
2022/11/27 08:31:36;;;;;;;19.40;10.63;;;2.70;99.90;;;;;;4991165;28;20111;-72
2022/11/27 08:34:04;;;;;;;22.45;12.45;;;2.70;99.90;;;;;;4996728;28;20049;-71
2022/11/27 08:36:30;;;;;;;24.73;12.40;;;2.80;99.90;;;;;;4996825;28;20049;-71
2022/11/27 08:38:56;;;;;;;22.80;13.55;;;2.80;99.90;;;;;;5010672;28;20080;-72
2022/11/27 08:41:22;;;;;;;22.05;13.25;;;2.80;99.90;;;;;;5013047;28;20056;-72
2022/11/27 08:43:48;;;;;;;23.13;12.80;;;2.90;99.90;;;;;;5028307;28;20044;-71
2022/11/27 08:46:13;;;;;;;30.00;20.38;;;2.90;99.90;;;;;;5029064;28;20172;-71
2022/11/27 08:48:40;;;;;;;23.13;15.45;;;3.00;99.90;;;;;;5028386;28;20053;-72
2022/11/27 08:51:10;;;;;;;20.58;12.60;;;3.00;99.90;;;;;;5023911;28;20091;-71
2022/11/27 08:53:38;;;;;;;21.65;11.95;;;3.10;99.90;;;;;;5029302;28;20119;-71
2022/11/27 08:56:11;;;;;;;20.00;11.77;;;3.10;99.90;;;;;;5011802;28;20049;-72
2022/11/27 08:58:39;;;;;;;20.13;11.70;;;3.20;99.90;;;;;;5010890;28;20118;-71
2022/11/27 09:01:16;;;;;;;23.83;11.25;;;3.30;99.90;;;;;;5027573;28;20152;-72
2022/11/27 09:03:42;;;;;;;23.13;11.93;;;3.40;99.90;;;;;;5012592;28;20037;-71
2022/11/27 09:06:09;;;;;;;19.77;11.13;;;3.40;99.90;;;;;;5026108;28;20041;-71
2022/11/27 09:08:35;;;;;;;16.58;10.82;;;3.60;99.90;;;;;;5028109;28;20057;-71
2022/11/27 09:11:03;;;;;;;21.90;11.02;;;3.60;99.90;;;;;;5028339;28;20042;-70
2022/11/27 09:13:29;;;;;;;22.30;11.70;;;3.80;99.90;;;;;;4996252;28;20037;-72
2022/11/27 09:15:56;;;;;;;17.67;11.27;;;3.80;99.90;;;;;;4992336;28;20112;-71
2022/11/27 09:18:22;;;;;;;23.00;11.35;;;3.90;99.90;;;;;;4991969;28;20046;-72
2022/11/27 09:21:07;;;;;;;19.75;11.45;;;4.00;99.90;;;;;;4994136;28;20497;-72
2022/11/27 09:23:33;;;;;;;21.02;11.30;;;4.00;99.90;;;;;;5007741;28;20049;-72
2022/11/27 09:26:04;;;;;;;18.95;11.02;;;4.10;99.90;;;;;;5010862;28;20147;-71
2022/11/27 09:28:31;;;;;;;21.80;10.23;;;4.10;99.90;;;;;;5027450;28;20041;-72
2022/11/27 09:30:58;;;;;;;19.38;10.40;;;4.20;99.90;;;;;;5011557;28;20479;-72
2022/11/27 09:33:24;;;;;;;21.63;9.35;;;4.30;99.90;;;;;;5016082;28;20359;-71
2022/11/27 09:35:50;;;;;;;22.05;10.23;;;4.40;99.90;;;;;;5009251;28;20152;-72
2022/11/27 09:38:16;;;;;;;16.38;10.48;;;4.50;99.90;;;;;;5026786;28;20157;-72
2022/11/27 09:40:48;;;;;;;18.75;9.95;;;4.60;99.90;;;;;;5028218;28;20115;-71
2022/11/27 09:43:14;;;;;;;21.30;10.68;;;4.60;99.90;;;;;;4992444;28;20341;-71
2022/11/27 09:45:44;;;;;;;17.88;10.25;;;4.70;99.90;;;;;;4995388;28;20481;-71
2022/11/27 09:48:17;;;;;;;20.83;10.32;;;4.90;99.90;;;;;;4994407;28;20080;-71
2022/11/27 09:50:49;;;;;;;18.08;9.15;;;4.90;99.90;;;;;;4993581;28;20046;-72
2022/11/27 09:53:48;;;;;;;17.35;8.65;;;5.10;99.90;;;;;;5024331;28;21247;-71
2022/11/27 09:56:16;;;;;;;15.00;8.73;;;5.10;99.90;;;;;;5027581;28;20467;-71
2022/11/27 09:59:10;;;;;;;15.32;8.40;;;5.30;99.90;;;;;;5026468;28;20061;-72
2022/11/27 10:01:35;;;;;;;14.23;8.05;;;5.50;99.90;;;;;;5006693;28;20211;-72
2022/11/27 10:04:02;;;;;;;16.58;7.97;;;5.70;99.90;;;;;;4992388;28;20050;-72
2022/11/27 10:07:02;;;;;;;15.00;8.48;;;5.90;99.90;;;;;;5027852;28;20140;-71
2022/11/27 10:09:35;;;;;;;13.60;8.15;;;6.20;99.90;;;;;;5029075;28;20084;-71
2022/11/27 10:12:13;;;;;;;13.43;8.30;;;6.40;99.90;;;;;;5008061;28;20054;-72
2022/11/27 10:14:44;;;;;;;15.48;7.72;;;6.60;99.90;;;;;;5022170;28;20053;-70
2022/11/27 10:17:15;;;;;;;16.48;7.63;;;6.60;99.90;;;;;;5028274;28;20049;-71
2022/11/27 10:19:45;;;;;;;12.77;7.88;;;6.60;99.90;;;;;;5014267;28;20072;-71
2022/11/27 10:22:34;;;;;;;14.05;7.85;;;6.80;99.90;;;;;;4994971;28;20050;-72
2022/11/27 10:25:20;;;;;;;14.23;7.95;;;6.90;99.90;;;;;;5012924;28;20045;-71
2022/11/27 10:28:05;;;;;;;15.90;8.20;;;7.10;99.90;;;;;;5027124;28;20049;-72
2022/11/27 10:30:32;;;;;;;11.85;7.03;;;7.40;99.90;;;;;;5027605;28;20045;-72
2022/11/27 10:32:59;;;;;;;11.50;7.15;;;7.50;99.90;;;;;;4981411;28;20046;-72
2022/11/27 10:35:29;;;;;;;11.15;6.65;;;7.60;99.90;;;;;;4995800;28;20054;-72
2022/11/27 10:38:21;;;;;;;11.20;6.53;;;7.90;99.90;;;;;;4998882;28;20123;-71
2022/11/27 10:41:10;;;;;;;11.43;6.57;;;8.30;99.90;;;;;;5022668;28;20049;-71
2022/11/27 10:43:36;;;;;;;13.23;6.78;;;8.60;99.90;;;;;;5018070;28;20163;-72
2022/11/27 10:46:25;;;;;;;15.43;7.38;;;8.80;99.90;;;;;;5029762;28;20145;-72
2022/11/27 10:48:51;;;;;;;9.23;5.97;;;9.30;99.90;;;;;;5026571;28;20049;-72
2022/11/27 10:51:20;;;;;;;11.88;5.75;;;9.60;99.90;;;;;;5030623;28;20474;-72
2022/11/27 10:53:47;;;;;;;10.98;6.47;;;9.60;99.90;;;;;;5014229;28;20049;-72
2022/11/27 10:56:55;;;;;;;13.38;6.20;;;9.60;99.90;;;;;;5011155;28;20517;-72
2022/11/27 10:59:34;;;;;;;9.45;6.50;;;9.30;99.90;;;;;;5008671;28;20037;-71
2022/11/27 11:02:02;;;;;;;13.25;7.40;;;9.10;99.90;;;;;;5009323;28;20430;-72
2022/11/27 11:04:29;;;;;;;12.18;7.88;;;8.70;99.90;;;;;;5029765;28;20128;-71
2022/11/27 11:06:55;;;;;;;12.48;7.45;;;8.60;99.90;;;;;;5010629;28;20116;-72
2022/11/27 11:09:28;;;;;;;12.38;6.65;;;8.50;99.90;;;;;;5031303;28;20049;-70
2022/11/27 11:12:13;;;;;;;12.07;7.00;;;8.20;99.90;;;;;;5030960;28;20104;-71
2022/11/27 11:14:38;;;;;;;12.73;7.38;;;8.10;99.90;;;;;;5027846;28;20057;-71
2022/11/27 11:17:14;;;;;;;15.70;7.25;;;8.00;99.90;;;;;;4995734;28;20502;-71
2022/11/27 11:19:41;;;;;;;16.77;7.82;;;8.00;99.90;;;;;;5029961;28;20367;-71
2022/11/27 11:22:25;;;;;;;15.93;6.82;;;8.00;99.90;;;;;;5031063;28;20045;-71
2022/11/27 11:24:51;;;;;;;14.90;6.65;;;7.90;99.90;;;;;;4997510;28;20049;-71
2022/11/27 11:27:24;;;;;;;13.68;7.18;;;7.80;99.90;;;;;;4994732;28;20050;-71
2022/11/27 11:30:00;;;;;;;13.82;6.78;;;7.80;99.90;;;;;;5029477;28;20041;-71
2022/11/27 11:32:31;;;;;;;14.07;6.95;;;7.80;99.90;;;;;;5027915;28;20379;-72
2022/11/27 11:35:23;;;;;;;11.75;6.28;;;7.80;99.90;;;;;;5030784;28;20486;-71
2022/11/27 11:37:48;;;;;;;13.43;6.28;;;7.70;99.90;;;;;;5021019;28;20136;-72
2022/11/27 11:40:15;;;;;;;10.00;5.82;;;7.70;99.90;;;;;;4980323;28;20128;-72
2022/11/27 11:42:50;;;;;;;18.77;6.75;;;7.70;99.90;;;;;;5030636;28;20447;-71
2022/11/27 11:45:17;;;;;;;15.10;7.30;;;7.70;99.90;;;;;;4993388;28;20081;-71
2022/11/27 11:47:49;;;;;;;13.43;6.22;;;7.60;99.90;;;;;;4996965;28;20095;-71
2022/11/27 11:50:36;;;;;;;12.55;6.22;;;7.60;99.90;;;;;;4995772;28;20092;-72
2022/11/27 11:53:26;;;;;;;12.38;6.60;;;7.60;99.90;;;;;;5030186;28;20049;-71
2022/11/27 11:56:22;;;;;;;10.20;6.63;;;7.60;99.90;;;;;;5024166;28;20049;-72
2022/11/27 11:58:59;;;;;;;15.82;7.45;;;7.60;99.90;;;;;;5027438;28;20049;-71
2022/11/27 12:02:05;;;;;;;15.20;8.00;;;7.70;99.90;;;;;;5024663;28;20080;-71
2022/11/27 12:05:08;;;;;;;14.27;6.95;;;7.70;99.90;;;;;;5027245;28;20351;-72
2022/11/27 12:07:42;;;;;;;15.88;7.28;;;7.70;99.90;;;;;;5026196;28;20046;-71
2022/11/27 12:10:22;;;;;;;14.27;7.05;;;7.80;99.90;;;;;;5013231;28;20041;-71
2022/11/27 12:12:50;;;;;;;13.43;7.25;;;7.80;99.90;;;;;;4997417;28;20538;-71
2022/11/27 12:15:37;;;;;;;14.20;7.43;;;7.90;99.90;;;;;;5029507;28;20060;-72
2022/11/27 12:18:35;;;;;;;10.85;6.80;;;8.00;99.90;;;;;;5029926;28;20049;-70
2022/11/27 12:21:37;;;;;;;11.02;6.10;;;8.00;99.90;;;;;;5030067;28;20356;-71
2022/11/27 12:24:10;;;;;;;14.73;6.55;;;8.20;99.90;;;;;;5026224;28;20110;-71
2022/11/27 12:26:42;;;;;;;12.57;6.28;;;8.30;99.90;;;;;;5029671;28;20502;-71
2022/11/27 12:29:19;;;;;;;11.43;6.15;;;8.40;99.90;;;;;;5030167;28;20340;-72
2022/11/27 12:31:57;;;;;;;10.38;5.75;;;8.50;99.90;;;;;;5028566;28;20803;-71
2022/11/27 12:34:36;;;;;;;10.45;6.05;;;8.60;99.90;;;;;;5029161;28;20049;-72
2022/11/27 12:37:11;;;;;;;9.85;6.30;;;8.60;99.90;;;;;;5027985;28;20503;-71
2022/11/27 12:40:09;;;;;;;11.25;6.10;;;8.60;99.90;;;;;;5027995;28;20490;-72
2022/11/27 12:43:16;;;;;;;11.98;5.57;;;8.70;99.90;;;;;;5020853;28;20042;-72
2022/11/27 12:46:00;;;;;;;8.27;5.97;;;8.60;99.90;;;;;;5009079;28;20069;-71
2022/11/27 12:48:35;;;;;;;12.25;6.32;;;8.60;99.90;;;;;;5024160;28;20478;-72
2022/11/27 12:51:06;;;;;;;11.32;5.60;;;8.60;99.90;;;;;;5028666;28;20042;-70
2022/11/27 12:54:02;;;;;;;11.15;5.82;;;8.50;99.90;;;;;;4994757;28;20049;-72
2022/11/27 12:56:42;;;;;;;11.70;5.03;;;8.50;99.90;;;;;;5024410;28;20103;-71
2022/11/27 12:59:15;;;;;;;12.30;6.50;;;8.50;99.90;;;;;;4997851;28;20049;-72
2022/11/27 13:02:12;;;;;;;12.70;6.20;;;8.50;99.90;;;;;;5026075;28;20041;-71
2022/11/27 13:04:58;;;;;;;13.23;6.72;;;8.50;99.90;;;;;;5029195;28;20080;-72